Time;durP1;ratioP1;P1;durP2;ratioP2;P2;SDS_P1;SDS_P2;PMS_P1;PMS_P2;Temp;Humidity;BMP_temperature;BMP_pressure;BME280_temperature;BME280_humidity;BME280_pressure;Samples;Min_cycle;Max_cycle;Signal;HPM_P1;HPM_P2
2023/01/18 00:00:39;;;;;;;20.80;12.80;;;;;;;5.57;100.00;98552.36;105064;1259;71246;-57
2023/01/18 00:03:12;;;;;;;20.90;11.90;;;;;;;5.58;100.00;98559.94;104965;1263;67433;-55
2023/01/18 00:07:05;;;;;;;17.30;10.80;;;;;;;5.59;100.00;98558.63;101556;1291;600332;-52
2023/01/18 00:09:31;;;;;;;19.40;11.50;;;;;;;5.62;100.00;98573.11;104249;1266;59397;-52
2023/01/18 00:11:58;;;;;;;20.10;12.40;;;;;;;5.64;100.00;98569.63;104251;1270;59366;-55
2023/01/18 00:14:25;;;;;;;19.40;11.90;;;;;;;5.65;100.00;98574.02;104402;1270;59432;-55
2023/01/18 00:16:51;;;;;;;18.00;10.90;;;;;;;5.67;100.00;98572.50;104572;1267;67370;-56
2023/01/18 00:19:18;;;;;;;20.00;12.00;;;;;;;5.70;100.00;98577.00;104504;1267;72999;-56
2023/01/18 00:21:45;;;;;;;21.80;12.20;;;;;;;5.72;100.00;98578.66;104636;1270;144705;-56
2023/01/18 00:24:13;;;;;;;21.20;12.60;;;;;;;5.74;100.00;98572.38;104555;1269;59284;-56
2023/01/18 00:26:41;;;;;;;22.70;12.70;;;;;;;5.75;100.00;98563.42;104611;1268;73909;-56
2023/01/18 00:29:09;;;;;;;22.30;10.90;;;;;;;5.78;100.00;98554.77;104132;1266;65957;-55
2023/01/18 00:31:36;;;;;;;18.00;10.20;;;;;;;5.81;100.00;98554.58;104060;1263;71927;-57
2023/01/18 00:34:03;;;;;;;21.00;10.90;;;;;;;5.84;100.00;98556.58;104467;1264;61929;-56
2023/01/18 00:36:30;;;;;;;20.70;9.70;;;;;;;5.86;100.00;98563.94;104866;1267;61765;-56
2023/01/18 00:38:57;;;;;;;15.00;10.40;;;;;;;5.88;100.00;98558.55;104773;1269;72690;-53
2023/01/18 00:41:24;;;;;;;17.60;10.60;;;;;;;5.89;100.00;98552.62;104732;1264;67101;-55
2023/01/18 00:43:51;;;;;;;15.90;10.50;;;;;;;5.91;100.00;98556.61;104658;1269;71456;-56
2023/01/18 00:46:22;;;;;;;22.20;10.20;;;;;;;5.94;100.00;98554.33;104590;1264;61231;-54
2023/01/18 00:48:50;;;;;;;15.80;9.80;;;;;;;5.96;100.00;98546.39;104835;1264;61124;-58
2023/01/18 00:51:19;;;;;;;17.60;10.70;;;;;;;5.98;100.00;98546.83;104803;1265;72719;-55
2023/01/18 00:53:46;;;;;;;13.70;9.10;;;;;;;6.01;100.00;98543.66;105225;1264;66014;-54
2023/01/18 00:58:29;;;;;;;18.80;11.70;;;;;;;6.03;100.00;98545.87;101721;1295;601389;-55
2023/01/18 01:00:56;;;;;;;17.70;9.50;;;;;;;6.05;100.00;98558.06;104229;1269;59449;-55
2023/01/18 01:03:23;;;;;;;17.20;10.50;;;;;;;6.06;100.00;98549.27;104462;1267;59891;-55
2023/01/18 01:08:35;;;;;;;17.90;10.40;;;;;;;6.07;100.00;98549.75;104410;1273;68061;-56
2023/01/18 01:11:07;;;;;;;19.20;10.30;;;;;;;6.09;100.00;98543.28;104288;1271;157812;-57
2023/01/18 01:27:22;;;;;;;16.90;10.00;;;;;;;6.20;100.00;98549.52;105248;1257;63039;-54
2023/01/18 01:29:50;;;;;;;12.10;9.00;;;;;;;6.20;100.00;98537.20;105401;1257;60834;-56
2023/01/18 01:32:17;;;;;;;20.20;10.40;;;;;;;6.21;100.00;98534.13;105217;1263;73586;-56
2023/01/18 01:34:43;;;;;;;19.70;10.20;;;;;;;6.21;100.00;98528.05;105368;1260;66217;-53
2023/01/18 01:37:10;;;;;;;18.50;10.50;;;;;;;6.21;100.00;98525.04;105352;1260;73128;-56
2023/01/18 01:39:37;;;;;;;17.60;10.20;;;;;;;6.23;100.00;98524.39;105305;1262;62890;-53
2023/01/18 01:42:03;;;;;;;21.40;10.10;;;;;;;6.24;100.00;98522.75;105315;1257;60637;-54
2023/01/18 01:44:33;;;;;;;19.40;9.90;;;;;;;6.24;100.00;98520.60;105327;1257;71773;-55
2023/01/18 01:47:05;;;;;;;14.80;9.10;;;;;;;6.23;100.00;98520.63;105438;1257;67647;-52
2023/01/18 01:49:33;;;;;;;18.20;9.60;;;;;;;6.23;100.00;98529.40;105023;1260;72092;-56
2023/01/18 01:52:02;;;;;;;20.30;10.70;;;;;;;6.23;100.00;98522.95;105250;1257;63583;-55
2023/01/18 01:54:33;;;;;;;15.70;9.90;;;;;;;6.23;100.00;98527.23;105344;1257;59611;-54
2023/01/18 01:57:04;;;;;;;12.30;8.50;;;;;;;6.24;100.00;98523.83;105333;1262;75461;-57
2023/01/18 01:59:33;;;;;;;19.20;10.70;;;;;;;6.24;100.00;98530.40;105804;1259;68571;-54
2023/01/18 02:01:59;;;;;;;16.20;9.80;;;;;;;6.25;100.00;98523.61;105099;1262;72855;-55
2023/01/18 02:04:26;;;;;;;16.40;9.70;;;;;;;6.25;100.00;98516.27;105319;1260;61862;-55
2023/01/18 02:06:53;;;;;;;16.70;9.50;;;;;;;6.27;100.00;98519.05;104987;1264;59644;-56
2023/01/18 02:09:22;;;;;;;18.40;9.50;;;;;;;6.26;100.00;98512.47;105274;1257;71848;-54
2023/01/18 02:11:52;;;;;;;22.50;10.30;;;;;;;6.27;100.00;98512.96;105090;1263;65079;-53
2023/01/18 02:14:21;;;;;;;19.40;10.90;;;;;;;6.28;100.00;98515.08;105275;1257;74013;-52
2023/01/18 02:17:04;;;;;;;19.40;11.10;;;;;;;6.27;100.00;98513.86;105295;1257;64202;-54
2023/01/18 02:19:31;;;;;;;15.20;9.70;;;;;;;6.26;100.00;98517.64;105413;1259;60474;-54
2023/01/18 02:22:09;;;;;;;20.10;10.40;;;;;;;6.26;100.00;98506.42;105076;1262;73555;-54
2023/01/18 02:24:42;;;;;;;18.50;9.00;;;;;;;6.28;100.00;98507.42;105488;1263;69553;-56
2023/01/18 02:27:20;;;;;;;27.40;12.20;;;;;;;6.29;100.00;98506.80;105280;1257;74519;-52
2023/01/18 02:29:56;;;;;;;17.30;10.60;;;;;;;6.31;100.00;98502.45;105154;1256;63420;-53
2023/01/18 02:32:54;;;;;;;20.10;10.20;;;;;;;6.29;100.00;98502.52;105319;1262;59631;-53
2023/01/18 02:35:24;;;;;;;15.40;9.50;;;;;;;6.30;100.00;98490.18;105136;1263;74739;-55
2023/01/18 02:37:57;;;;;;;19.70;9.60;;;;;;;6.32;100.00;98486.36;105183;1262;65998;-54
2023/01/18 02:40:32;;;;;;;21.30;9.70;;;;;;;6.34;100.00;98484.13;105286;1260;72096;-49
2023/01/18 02:48:38;;;;;;;18.50;8.90;;;;;;;6.37;100.00;98477.01;105108;1262;72799;-49
2023/01/18 02:51:05;;;;;;;18.60;9.40;;;;;;;6.38;100.00;98467.32;105113;1258;66175;-56
2023/01/18 02:53:34;;;;;;;12.50;9.10;;;;;;;6.39;100.00;98460.68;105018;1258;72249;-55
2023/01/18 02:56:04;;;;;;;18.40;9.50;;;;;;;6.40;100.00;98456.70;105517;1260;62327;-53
2023/01/18 02:58:31;;;;;;;17.70;8.80;;;;;;;6.41;100.00;98460.77;105151;1264;59806;-54
2023/01/18 03:01:21;;;;;;;16.40;9.50;;;;;;;6.40;100.00;98459.88;105154;1256;73578;-54
2023/01/18 03:03:48;;;;;;;17.50;8.90;;;;;;;6.40;100.00;98469.17;105280;1259;68863;-52
2023/01/18 03:06:14;;;;;;;16.90;9.30;;;;;;;6.41;100.00;98463.59;105151;1260;71757;-55
2023/01/18 03:08:46;;;;;;;11.90;9.40;;;;;;;6.42;100.00;98457.85;105298;1258;61245;-53
2023/01/18 03:11:20;;;;;;;16.00;8.30;;;;;;;6.43;100.00;98458.31;105170;1258;59967;-55
2023/01/18 03:14:06;;;;;;;17.50;9.00;;;;;;;6.45;100.00;98469.45;105456;1257;71525;-54
2023/01/18 03:17:02;;;;;;;16.20;8.70;;;;;;;6.47;100.00;98473.08;105326;1263;66722;-54
2023/01/18 03:23:36;;;;;;;12.30;8.20;;;;;;;6.54;100.00;98472.23;105183;1260;62896;-53
2023/01/18 03:25:06;;;;;;;13.50;8.50;;;;;;;6.56;100.00;98476.55;105278;1257;59589;-53
2023/01/18 03:35:50;;;;;;;15.40;9.60;;;;;;;6.62;100.00;98470.52;104755;1259;61629;-54
2023/01/18 03:38:17;;;;;;;17.40;9.00;;;;;;;6.64;100.00;98473.29;104737;1257;61106;-52
2023/01/18 03:40:43;;;;;;;17.70;10.00;;;;;;;6.65;100.00;98464.15;104987;1257;74487;-56
2023/01/18 03:43:13;;;;;;;16.90;9.20;;;;;;;6.65;100.00;98463.23;105006;1257;68088;-55
2023/01/18 03:45:58;;;;;;;17.00;10.00;;;;;;;6.65;100.00;98461.25;105309;1262;72078;-54
2023/01/18 03:48:25;;;;;;;;;;;;;;;6.67;100.00;98453.33;105122;1259;62812;-56
2023/01/18 03:50:53;;;;;;;16.90;10.40;;;;;;;6.68;100.00;98454.70;105086;1257;60390;-52
2023/01/18 03:53:31;;;;;;;18.50;9.90;;;;;;;6.68;100.00;98452.19;105598;1256;72182;-53
2023/01/18 03:56:01;;;;;;;19.50;9.50;;;;;;;6.68;100.00;98466.98;104964;1258;65814;-53
2023/01/18 03:58:33;;;;;;;16.60;9.80;;;;;;;6.68;100.00;98464.30;105120;1263;73260;-54
2023/01/18 04:01:04;;;;;;;15.90;9.10;;;;;;;6.70;100.00;98454.44;105172;1263;60609;-54
2023/01/18 04:03:31;;;;;;;11.80;8.10;;;;;;;6.69;100.00;98451.61;104906;1262;61322;-51
2023/01/18 04:05:59;;;;;;;13.60;8.70;;;;;;;6.68;100.00;98444.55;105421;1257;72987;-53
2023/01/18 04:08:26;;;;;;;15.50;7.90;;;;;;;6.69;100.00;98455.02;105461;1258;65979;-52
2023/01/18 04:10:53;;;;;;;13.00;7.20;;;;;;;6.71;100.00;98460.98;105052;1261;73205;-53
2023/01/18 04:13:20;;;;;;;8.80;6.40;;;;;;;6.71;100.00;98464.20;105221;1257;63707;-53
2023/01/18 04:15:46;;;;;;;15.30;9.20;;;;;;;6.72;100.00;98471.06;105301;1263;59682;-50
2023/01/18 04:18:13;;;;;;;11.80;8.00;;;;;;;6.71;100.00;98477.17;105172;1262;73578;-54
2023/01/18 04:20:40;;;;;;;15.80;8.20;;;;;;;6.72;100.00;98476.98;105297;1257;67779;-53
2023/01/18 04:23:07;;;;;;;10.20;7.90;;;;;;;6.71;100.00;98470.77;105257;1260;71737;-53
2023/01/18 04:25:33;;;;;;;12.70;7.90;;;;;;;6.71;100.00;98462.05;105199;1258;64115;-53
2023/01/18 04:28:00;;;;;;;11.00;7.40;;;;;;;6.69;100.00;98460.16;105232;1257;60417;-53
2023/01/18 04:30:27;;;;;;;12.10;6.80;;;;;;;6.69;100.00;98451.27;105196;1263;75696;-53
2023/01/18 04:32:54;;;;;;;12.20;6.90;;;;;;;6.68;100.00;98444.88;105115;1262;68266;-55
2023/01/18 04:35:20;;;;;;;9.30;6.60;;;;;;;6.69;100.00;98445.03;105182;1263;74952;-54
2023/01/18 04:37:51;;;;;;;11.40;7.10;;;;;;;6.69;100.00;98453.23;105320;1256;63121;-55
2023/01/18 04:40:18;;;;;;;8.50;6.90;;;;;;;6.70;100.00;98457.96;105166;1256;62216;-56
2023/01/18 04:42:51;;;;;;;9.70;6.40;;;;;;;6.71;100.00;98463.83;105235;1262;73856;-55
2023/01/18 04:45:18;;;;;;;11.80;6.90;;;;;;;6.72;100.00;98460.92;105499;1257;69604;-54
2023/01/18 04:47:45;;;;;;;11.10;6.80;;;;;;;6.72;100.00;98468.02;105262;1257;74975;-55
2023/01/18 04:50:12;;;;;;;11.60;6.60;;;;;;;6.72;100.00;98462.30;105301;1261;64545;-56
2023/01/18 04:52:39;;;;;;;10.50;7.20;;;;;;;6.73;100.00;98453.68;105307;1262;62551;-53
2023/01/18 04:55:07;;;;;;;11.00;6.80;;;;;;;6.74;100.00;98458.45;105309;1257;73900;-55
2023/01/18 04:57:33;;;;;;;13.50;7.50;;;;;;;6.75;100.00;98450.38;106195;1257;68492;-55
2023/01/18 05:00:01;;;;;;;9.00;6.20;;;;;;;6.76;100.00;98453.02;105303;1262;74920;-51
2023/01/18 05:02:27;;;;;;;11.60;7.90;;;;;;;6.75;100.00;98448.63;105074;1262;62580;-53
2023/01/18 05:04:54;;;;;;;11.40;7.50;;;;;;;6.74;100.00;98445.79;104831;1257;60970;-54
2023/01/18 05:07:24;;;;;;;9.70;7.40;;;;;;;6.74;100.00;98446.52;104799;1257;74229;-54
2023/01/18 05:09:51;;;;;;;11.50;7.20;;;;;;;6.74;100.00;98440.82;105213;1263;67414;-55
2023/01/18 05:12:17;;;;;;;11.10;7.30;;;;;;;6.74;100.00;98442.40;105194;1257;74558;-55
2023/01/18 05:14:44;;;;;;;10.10;6.10;;;;;;;6.75;100.00;98437.55;105207;1259;62765;-52
2023/01/18 05:17:11;;;;;;;13.10;8.90;;;;;;;6.76;100.00;98440.86;105140;1257;61903;-52
2023/01/18 05:19:39;;;;;;;11.60;7.20;;;;;;;6.77;100.00;98439.39;105192;1257;74670;-53
2023/01/18 05:22:06;;;;;;;11.00;6.10;;;;;;;6.77;100.00;98439.39;105026;1262;68099;-53
2023/01/18 05:24:33;;;;;;;8.50;5.90;;;;;;;6.78;100.00;98428.85;104657;1258;74486;-52
2023/01/18 05:27:00;;;;;;;7.30;5.40;;;;;;;6.78;100.00;98425.79;104725;1257;61423;-52
2023/01/18 05:29:26;;;;;;;8.80;6.30;;;;;;;6.79;100.00;98424.17;104795;1262;61563;-51
2023/01/18 05:31:53;;;;;;;9.90;5.80;;;;;;;6.79;100.00;98420.02;104862;1257;71858;-55
2023/01/18 05:34:20;;;;;;;9.90;6.50;;;;;;;6.80;100.00;98419.08;105123;1263;65913;-52
2023/01/18 05:36:47;;;;;;;11.70;5.70;;;;;;;6.81;100.00;98411.33;105060;1263;75201;-54
2023/01/18 05:39:14;;;;;;;8.40;5.20;;;;;;;6.83;100.00;98413.04;105112;1256;62056;-55
2023/01/18 05:41:40;;;;;;;11.00;6.10;;;;;;;6.83;100.00;98418.23;105119;1259;60495;-55
2023/01/18 05:44:08;;;;;;;8.10;5.80;;;;;;;6.83;100.00;98411.43;105458;1257;74430;-54
2023/01/18 05:46:49;;;;;;;9.70;6.50;;;;;;;6.85;100.00;98406.52;105243;1257;67734;-53
2023/01/18 05:49:15;;;;;;;11.20;6.80;;;;;;;6.87;100.00;98400.36;105243;1258;71229;-53
2023/01/18 05:51:42;;;;;;;6.30;5.70;;;;;;;6.89;100.00;98396.17;105236;1263;62339;-53
2023/01/18 05:54:09;;;;;;;11.80;7.80;;;;;;;6.91;100.00;98396.73;105183;1261;60487;-52
2023/01/18 05:59:39;;;;;;;17.10;9.80;;;;;;;6.93;100.00;98398.77;104442;1292;600293;-76
2023/01/18 06:02:05;;;;;;;11.40;7.20;;;;;;;6.97;100.00;98409.28;104511;1275;62045;-54
2023/01/18 06:04:32;;;;;;;10.70;6.60;;;;;;;7.00;100.00;98408.39;104172;1270;59892;-52
2023/01/18 06:06:59;;;;;;;7.50;6.10;;;;;;;7.04;100.00;98412.11;103959;1280;72718;-52
2023/01/18 06:09:28;;;;;;;11.90;7.00;;;;;;;7.07;100.00;98411.02;103861;1275;65945;-53
2023/01/18 06:11:55;;;;;;;9.10;6.70;;;;;;;7.09;100.00;98417.67;104900;1266;74677;-52
2023/01/18 06:14:22;;;;;;;16.10;7.50;;;;;;;7.11;100.00;98414.17;104713;1266;220319;-54
2023/01/18 06:16:49;;;;;;;24.10;13.60;;;;;;;7.15;100.00;98411.11;104288;1265;59929;-54
2023/01/18 06:19:16;;;;;;;18.50;11.30;;;;;;;7.17;100.00;98408.67;104364;1260;70990;-52
2023/01/18 06:21:43;;;;;;;24.90;18.50;;;;;;;7.20;100.00;98413.17;105299;1264;66242;-54
2023/01/18 06:24:10;;;;;;;11.70;8.80;;;;;;;7.22;100.00;98415.02;104765;1261;71505;-52
2023/01/18 06:26:36;;;;;;;10.80;6.40;;;;;;;7.24;100.00;98420.39;105045;1264;64291;-54
2023/01/18 06:29:03;;;;;;;13.30;6.50;;;;;;;7.27;100.00;98421.84;104967;1260;60852;-53
2023/01/18 06:31:30;;;;;;;10.20;6.00;;;;;;;7.32;100.00;98415.88;104844;1259;74175;-54
2023/01/18 06:33:56;;;;;;;11.70;6.80;;;;;;;7.36;100.00;98411.73;104924;1265;68567;-52
2023/01/18 06:36:23;;;;;;;12.30;7.60;;;;;;;7.38;100.00;98416.40;104990;1265;73293;-52
2023/01/18 06:38:50;;;;;;;12.20;6.50;;;;;;;7.40;100.00;98411.88;104927;1265;62554;-53
2023/01/18 06:41:16;;;;;;;10.20;6.10;;;;;;;7.41;100.00;98414.45;104833;1265;60168;-55
2023/01/18 06:43:43;;;;;;;7.90;5.50;;;;;;;7.42;100.00;98419.03;104960;1260;73681;-55
2023/01/18 06:46:10;;;;;;;8.30;5.80;;;;;;;7.44;100.00;98418.05;104944;1260;68616;-53
2023/01/18 06:48:37;;;;;;;10.60;5.90;;;;;;;7.46;100.00;98417.92;105053;1261;73487;-54
2023/01/18 06:51:04;;;;;;;11.20;5.00;;;;;;;7.47;100.00;98415.53;104973;1270;60080;-55
2023/01/18 06:53:31;;;;;;;12.70;6.10;;;;;;;7.49;100.00;98410.56;105096;1263;59779;-54
2023/01/18 06:55:58;;;;;;;12.60;5.90;;;;;;;7.52;100.00;98415.45;105001;1267;74631;-53
2023/01/18 06:58:25;;;;;;;10.70;5.40;;;;;;;7.55;100.00;98412.23;104964;1266;67631;-53
2023/01/18 07:00:59;;;;;;;9.80;5.40;;;;;;;7.60;100.00;98419.45;104813;1267;71629;-54
2023/01/18 07:03:26;;;;;;;11.20;5.70;;;;;;;7.63;100.00;98421.25;106410;1260;62781;-50
2023/01/18 07:05:53;;;;;;;10.90;5.00;;;;;;;7.66;100.00;98418.23;104468;1267;59624;-54
2023/01/18 07:08:20;;;;;;;11.80;4.40;;;;;;;7.69;100.00;98420.71;104691;1261;74769;-50
2023/01/18 07:10:48;;;;;;;11.20;4.30;;;;;;;7.72;100.00;98421.98;105466;1261;67178;-50
2023/01/18 07:13:14;;;;;;;13.40;5.20;;;;;;;7.75;100.00;98423.78;104895;1261;71513;-50
2023/01/18 07:15:41;;;;;;;9.90;3.30;;;;;;;7.77;100.00;98416.85;104932;1263;61597;-50
2023/01/18 07:18:08;;;;;;;9.10;4.70;;;;;;;7.79;100.00;98421.94;104973;1260;60767;-54
2023/01/18 07:20:35;;;;;;;12.50;4.60;;;;;;;7.80;100.00;98425.80;104878;1267;72459;-49
2023/01/18 07:23:03;;;;;;;10.40;4.10;;;;;;;7.82;100.00;98421.73;104988;1260;66002;-48
2023/01/18 07:25:29;;;;;;;8.60;3.70;;;;;;;7.84;100.00;98427.13;104961;1265;72784;-54
2023/01/18 07:27:56;;;;;;;9.60;3.90;;;;;;;7.86;100.00;98427.54;104971;1266;60885;-55
2023/01/18 07:30:23;;;;;;;10.60;4.20;;;;;;;7.88;100.00;98425.67;104881;1261;59570;-51
2023/01/18 07:32:50;;;;;;;10.00;6.50;;;;;;;7.90;100.00;98426.97;104839;1262;71067;-54
2023/01/18 07:35:20;;;;;;;12.70;6.90;;;;;;;7.93;100.00;98424.44;104886;1260;67760;-53
2023/01/18 07:37:49;;;;;;;8.30;5.70;;;;;;;7.96;100.00;98420.73;106215;1263;72993;-53
2023/01/18 07:40:16;;;;;;;11.80;5.90;;;;;;;7.98;100.00;98431.34;104963;1266;61557;-56
2023/01/18 07:42:43;;;;;;;10.00;3.80;;;;;;;7.98;100.00;98429.70;104728;1261;59599;-54
2023/01/18 07:45:10;;;;;;;12.30;5.90;;;;;;;7.99;100.00;98427.98;105230;1260;72171;-52
2023/01/18 07:47:38;;;;;;;8.20;4.10;;;;;;;8.02;100.00;98426.65;104626;1267;69406;-49
2023/01/18 07:50:05;;;;;;;11.40;4.80;;;;;;;8.02;100.00;98423.02;104403;1263;73102;-51
2023/01/18 07:52:32;;;;;;;11.00;5.00;;;;;;;8.04;100.00;98420.77;106774;1263;62703;-50
2023/01/18 08:43:28;;;;;;;12.90;5.60;;;;;;;8.42;100.00;98477.00;108208;1260;957728;-70
2023/01/18 08:45:54;;;;;;;12.20;5.30;;;;;;;8.48;100.00;98474.50;108819;1243;59627;-72
2023/01/18 08:48:21;;;;;;;12.80;4.40;;;;;;;8.53;100.00;98479.33;108397;1243;73160;-72
2023/01/18 08:50:48;;;;;;;13.50;5.00;;;;;;;8.58;100.00;98476.91;108542;1243;66789;-71
2023/01/18 08:53:17;;;;;;;14.40;5.00;;;;;;;8.63;100.00;98482.33;108468;1247;72793;-70
2023/01/18 08:55:44;;;;;;;12.50;4.20;;;;;;;8.67;100.00;98478.31;108557;1243;60773;-72
2023/01/18 08:58:11;;;;;;;14.70;3.80;;;;;;;8.70;100.00;98476.52;108534;1244;59511;-71
2023/01/18 09:00:38;;;;;;;12.50;4.70;;;;;;;8.72;100.00;98468.02;108782;1242;69988;-72
2023/01/18 09:03:05;;;;;;;10.70;4.50;;;;;;;8.75;100.00;98463.55;108800;1244;68254;-68
2023/01/18 09:05:33;;;;;;;13.50;4.10;;;;;;;8.80;100.00;98455.88;108448;1244;73383;-71
2023/01/18 09:08:00;;;;;;;12.10;4.70;;;;;;;8.84;100.00;98454.63;108280;1246;60907;-72
2023/01/18 09:10:27;;;;;;;13.00;4.50;;;;;;;8.86;100.00;98457.83;108329;1245;59633;-71
2023/01/18 09:12:55;;;;;;;17.20;5.10;;;;;;;8.89;100.00;98462.14;108233;1245;72946;-70
2023/01/18 09:15:22;;;;;;;12.60;5.20;;;;;;;8.90;100.00;98464.73;108858;1246;65375;-72
2023/01/18 09:17:48;;;;;;;16.30;4.60;;;;;;;8.93;100.00;98462.95;108967;1246;59757;-71
2023/01/18 09:20:15;;;;;;;13.40;4.30;;;;;;;8.95;100.00;98464.95;108482;1244;59632;-71
2023/01/18 09:22:46;;;;;;;19.30;5.30;;;;;;;8.97;100.00;98475.03;108336;1242;59707;-72
2023/01/18 09:25:13;;;;;;;13.30;4.00;;;;;;;8.99;100.00;98487.81;108192;1244;71941;-71
2023/01/18 09:27:39;;;;;;;18.30;6.20;;;;;;;9.01;100.00;98492.17;108561;1244;65371;-68
2023/01/18 09:30:08;;;;;;;25.10;8.00;;;;;;;9.01;100.00;98502.86;108469;1245;59715;-72
2023/01/18 09:32:38;;;;;;;20.50;8.10;;;;;;;9.04;100.00;98514.30;108503;1246;60226;-72
2023/01/18 09:35:07;;;;;;;17.50;7.00;;;;;;;9.08;100.00;98558.47;108509;1244;59601;-72
2023/01/18 09:37:34;;;;;;;22.50;8.90;;;;;;;9.09;100.00;98591.70;108414;1244;72885;-71
2023/01/18 09:40:01;;;;;;;21.30;8.70;;;;;;;9.11;100.00;98606.59;108468;1243;67686;-71
2023/01/18 09:42:33;;;;;;;23.40;8.80;;;;;;;9.13;100.00;98614.02;108503;1246;72805;-71
2023/01/18 09:45:00;;;;;;;24.50;8.90;;;;;;;9.14;100.00;98632.57;108902;1249;60825;-72
2023/01/18 09:47:47;;;;;;;22.50;6.90;;;;;;;9.14;100.00;98654.23;108266;1250;59640;-71
2023/01/18 09:50:17;;;;;;;23.20;7.20;;;;;;;9.12;100.00;98678.65;108401;1246;74381;-71
2023/01/18 09:52:51;;;;;;;17.10;6.50;;;;;;;9.11;100.00;98706.25;109216;1234;67020;-70
2023/01/18 09:55:32;;;;;;;16.40;7.20;;;;;;;9.12;100.00;98735.20;109796;1234;73181;-70
2023/01/18 09:58:33;;;;;;;15.00;5.20;;;;;;;9.13;100.00;98759.51;109181;1234;60642;-69
2023/01/18 10:01:03;;;;;;;11.00;3.20;;;;;;;9.13;100.00;98789.94;109092;1240;59594;-72
2023/01/18 10:04:05;;;;;;;11.90;4.90;;;;;;;9.12;100.00;98811.98;109255;1240;72128;-71
2023/01/18 10:06:58;;;;;;;17.20;6.40;;;;;;;9.13;100.00;98858.48;109003;1234;66362;-73
2023/01/18 10:09:37;;;;;;;12.00;4.00;;;;;;;9.12;100.00;99182.49;109391;1237;72079;-72
2023/01/18 10:12:13;;;;;;;15.20;3.70;;;;;;;9.14;100.00;99154.49;109295;1237;60679;-73
2023/01/18 10:14:46;;;;;;;17.10;6.30;;;;;;;9.15;100.00;99153.02;108894;1240;59792;-72
2023/01/18 10:17:20;;;;;;;16.10;4.20;;;;;;;9.15;100.00;99135.09;108868;1241;71687;-72
2023/01/18 10:19:47;;;;;;;14.60;3.50;;;;;;;9.18;100.00;99117.09;109175;1237;66166;-72
2023/01/18 10:22:21;;;;;;;13.00;3.60;;;;;;;9.18;100.00;99110.45;109526;1237;72696;-71
2023/01/18 10:25:02;;;;;;;14.20;4.60;;;;;;;9.18;100.00;99105.58;109084;1234;61938;-72
2023/01/18 10:27:38;;;;;;;14.20;3.90;;;;;;;9.20;100.00;99101.86;109848;1235;61187;-72
2023/01/18 10:30:27;;;;;;;11.20;4.00;;;;;;;9.22;100.00;99101.23;109387;1235;71914;-72
2023/01/18 10:32:56;;;;;;;10.70;3.00;;;;;;;9.25;100.00;99101.81;109247;1237;67214;-73
2023/01/18 10:35:27;;;;;;;15.10;3.30;;;;;;;9.26;100.00;99103.02;109200;1235;70089;-73
2023/01/18 10:37:56;;;;;;;14.80;3.30;;;;;;;9.25;100.00;99095.36;109233;1240;59811;-73
2023/01/18 10:40:24;;;;;;;9.30;2.40;;;;;;;9.21;100.00;99087.86;109732;1234;61138;-72
2023/01/18 10:43:02;;;;;;;10.70;2.70;;;;;;;9.22;100.00;99083.72;109190;1234;72862;-72
2023/01/18 10:45:32;;;;;;;13.80;4.60;;;;;;;9.23;100.00;99092.98;109133;1239;66346;-73
2023/01/18 10:48:18;;;;;;;11.00;2.50;;;;;;;9.25;100.00;99082.30;109933;1235;70804;-72
2023/01/18 10:50:47;;;;;;;8.60;2.60;;;;;;;9.26;100.00;99083.13;109201;1239;62692;-72
2023/01/18 10:53:24;;;;;;;13.70;3.20;;;;;;;9.28;100.00;99077.30;110335;1234;60129;-72
2023/01/18 10:56:00;;;;;;;13.10;2.80;;;;;;;9.30;100.00;99081.67;110744;1234;72361;-72
2023/01/18 10:58:33;;;;;;;10.80;1.80;;;;;;;9.32;100.00;99077.44;110104;1237;66973;-72
2023/01/18 11:01:00;;;;;;;10.00;2.50;;;;;;;9.34;100.00;99075.88;109716;1240;73893;-72
2023/01/18 11:03:28;;;;;;;13.90;3.00;;;;;;;9.38;100.00;99071.01;109875;1240;63149;-71
2023/01/18 11:06:03;;;;;;;6.40;2.30;;;;;;;9.42;100.00;99080.80;107544;1240;59799;-72
2023/01/18 11:08:34;;;;;;;15.10;2.00;;;;;;;9.46;100.00;99084.73;109869;1239;72406;-72
2023/01/18 11:11:22;;;;;;;7.60;1.80;;;;;;;9.49;100.00;99093.86;109101;1237;66521;-72
2023/01/18 11:13:49;;;;;;;13.10;2.60;;;;;;;9.55;100.00;99092.14;109084;1234;71484;-73
2023/01/18 11:16:17;;;;;;;11.50;2.60;;;;;;;9.58;100.00;99087.69;109013;1234;61949;-69
2023/01/18 11:18:58;;;;;;;6.80;1.70;;;;;;;9.59;100.00;99095.13;109359;1234;59933;-72
2023/01/18 11:21:32;;;;;;;11.30;2.10;;;;;;;9.62;100.00;99106.10;109209;1234;74039;-72
2023/01/18 11:24:05;;;;;;;11.50;3.30;;;;;;;9.63;100.00;99109.95;109164;1234;67249;-71
2023/01/18 11:26:32;;;;;;;11.10;2.90;;;;;;;9.65;100.00;99109.87;109206;1240;72054;-70
2023/01/18 11:29:00;;;;;;;12.80;2.20;;;;;;;9.64;100.00;99108.27;109299;1234;61759;-71
2023/01/18 11:31:29;;;;;;;9.20;1.70;;;;;;;9.66;100.00;99108.88;109281;1237;59507;-71
2023/01/18 11:34:00;;;;;;;12.20;2.20;;;;;;;9.67;100.00;99109.90;109085;1240;73908;-71
2023/01/18 11:36:38;;;;;;;9.10;2.60;;;;;;;9.69;100.00;99111.92;109226;1234;67233;-72
2023/01/18 11:39:18;;;;;;;22.20;6.00;;;;;;;9.70;100.00;99112.77;109225;1240;71728;-74
2023/01/18 11:41:45;;;;;;;13.60;2.40;;;;;;;9.71;100.00;99114.15;109208;1237;61855;-73
2023/01/18 11:44:18;;;;;;;17.30;5.80;;;;;;;9.72;100.00;99109.97;109081;1238;60256;-72
2023/01/18 11:46:48;;;;;;;12.70;2.60;;;;;;;9.74;100.00;99112.40;109090;1234;72922;-70
2023/01/18 11:49:41;;;;;;;10.10;3.00;;;;;;;9.76;100.00;99112.30;109434;1240;68252;-72
2023/01/18 11:52:27;;;;;;;7.20;1.90;;;;;;;9.78;100.00;99113.43;109657;1238;70896;-70
2023/01/18 11:54:56;;;;;;;10.30;3.10;;;;;;;9.79;100.00;99118.02;108439;1237;62085;-71
2023/01/18 11:57:23;;;;;;;8.30;1.90;;;;;;;9.80;100.00;99111.33;108257;1235;61270;-71
2023/01/18 11:59:49;;;;;;;13.20;1.80;;;;;;;9.82;100.00;99104.59;109372;1238;71893;-70
2023/01/18 12:02:29;;;;;;;15.40;2.50;;;;;;;9.83;100.00;99117.06;107954;1241;67970;-68
2023/01/18 12:05:03;;;;;;;14.50;4.10;;;;;;;9.84;100.00;99130.45;108480;1238;72803;-71
2023/01/18 12:07:44;;;;;;;10.20;2.60;;;;;;;9.86;100.00;99131.44;108175;1240;61938;-69
2023/01/18 12:10:21;;;;;;;13.00;2.70;;;;;;;9.87;100.00;99122.42;107995;1238;61026;-69
2023/01/18 12:34:36;;;;;;;12.40;1.90;;;;;;;10.18;100.00;99225.61;103136;1279;614993;-57
2023/01/18 12:37:30;;;;;;;6.70;1.30;;;;;;;10.27;100.00;99289.14;104766;1271;102034;-56
2023/01/18 12:40:12;;;;;;;8.80;2.70;;;;;;;10.23;100.00;99279.07;105320;1261;60833;-56
2023/01/18 12:42:42;;;;;;;10.50;1.50;;;;;;;10.21;100.00;99270.08;105304;1258;73432;-57
2023/01/18 12:45:25;;;;;;;12.40;1.90;;;;;;;10.18;100.00;99261.11;105013;1257;67539;-58
2023/01/18 12:48:05;;;;;;;9.20;2.00;;;;;;;10.15;100.00;99264.61;105165;1258;72801;-56
2023/01/18 12:50:38;;;;;;;12.90;1.90;;;;;;;10.12;100.00;99259.41;106323;1259;73903;-81
2023/01/18 12:53:09;;;;;;;12.20;1.40;;;;;;;10.09;100.00;99252.21;104978;1268;60803;-55
2023/01/18 12:55:35;;;;;;;12.30;1.90;;;;;;;10.07;100.00;99244.46;104733;1267;72180;-54
2023/01/18 12:58:02;;;;;;;6.60;1.50;;;;;;;10.05;100.00;99243.27;104685;1270;59352;-58
2023/01/18 13:00:34;;;;;;;7.40;1.30;;;;;;;10.04;100.00;99247.98;104842;1263;71909;-56
2023/01/18 13:03:03;;;;;;;7.60;1.60;;;;;;;10.05;100.00;99246.36;104966;1267;61326;-56
2023/01/18 13:05:34;;;;;;;8.30;2.00;;;;;;;10.04;100.00;99245.02;105143;1267;60252;-56
2023/01/18 13:08:13;;;;;;;12.60;2.50;;;;;;;10.01;100.00;99241.20;105559;1268;72457;-54
2023/01/18 13:10:42;;;;;;;10.30;2.50;;;;;;;9.99;100.00;99239.50;104882;1267;66692;-54
2023/01/18 13:13:12;;;;;;;9.80;1.50;;;;;;;9.98;100.00;99234.39;105192;1263;72880;-57
2023/01/18 13:15:46;;;;;;;11.00;2.50;;;;;;;9.98;100.00;99230.80;105234;1263;61812;-55
2023/01/18 13:18:50;;;;;;;14.30;1.70;;;;;;;9.98;100.00;99228.30;104349;1268;60311;-56
2023/01/18 13:21:36;;;;;;;12.40;2.20;;;;;;;9.98;100.00;99236.88;104344;1264;72742;-56